createdAt,value
2019-04-05T00:00:43.696Z,91.55
2019-04-05T00:01:43.688Z,91.03
2019-04-05T00:02:43.673Z,91.14
2019-04-05T00:03:43.660Z,91.03
2019-04-05T00:04:43.661Z,91.35
2019-04-05T00:05:43.680Z,92.07
2019-04-05T00:06:43.638Z,92.28
2019-04-05T00:07:43.618Z,91.55
2019-04-05T00:08:43.606Z,91.66
2019-04-05T00:09:43.598Z,91.55
2019-04-05T00:10:43.608Z,92.07
2019-04-05T00:11:43.573Z,91.97
2019-04-05T00:12:43.573Z,91.86
2019-04-05T00:13:43.555Z,91.76
2019-04-05T00:14:43.543Z,92.01
2019-04-05T00:15:43.548Z,91.66
2019-04-05T00:16:43.528Z,91.80
2019-04-05T00:17:43.509Z,92.11
2019-04-05T00:18:43.494Z,92.01
2019-04-05T00:19:43.485Z,91.80
2019-04-05T00:20:43.502Z,92.07
2019-04-05T00:21:43.461Z,92.43
2019-04-05T00:22:43.451Z,92.22
2019-04-05T00:23:43.442Z,91.70
2019-04-05T00:24:43.470Z,91.66
2019-04-05T00:25:43.430Z,92.22
2019-04-05T00:26:43.406Z,92.53
2019-04-05T00:27:43.396Z,91.60
2019-04-05T00:28:43.413Z,92.11
2019-04-05T00:29:43.376Z,92.53
2019-04-05T00:30:44.975Z,92.53
2019-04-05T00:31:43.354Z,92.11
2019-04-05T00:32:43.344Z,91.76
2019-04-05T00:33:43.331Z,91.66
2019-04-05T00:34:43.322Z,91.18
2019-04-05T00:35:43.326Z,91.28
2019-04-05T00:36:43.297Z,91.08
2019-04-05T00:37:43.289Z,91.39
2019-04-05T00:38:43.282Z,91.39
2019-04-05T00:39:43.261Z,91.49
2019-04-05T00:40:43.275Z,91.70
2019-04-05T00:41:43.257Z,91.14
2019-04-05T00:42:43.229Z,91.03
2019-04-05T00:43:43.223Z,91.39
2019-04-05T00:44:43.211Z,91.24
2019-04-05T00:45:43.217Z,91.28
2019-04-05T00:46:44.743Z,91.18
2019-04-05T00:47:43.179Z,90.97
2019-04-05T00:48:43.170Z,91.76
2019-04-05T00:49:43.158Z,91.91
2019-04-05T00:50:43.162Z,91.60
2019-04-05T00:51:43.172Z,91.80
2019-04-05T00:52:43.130Z,91.70
2019-04-05T00:53:43.118Z,92.11
2019-04-05T00:54:43.098Z,92.07
2019-04-05T00:55:43.089Z,91.45
2019-04-05T00:56:43.103Z,91.45
2019-04-05T00:57:43.066Z,91.70
2019-04-05T00:58:43.055Z,92.32
2019-04-05T00:59:43.046Z,92.18
2019-04-05T01:00:43.050Z,92.32
2019-04-05T01:01:43.044Z,91.80
2019-04-05T01:02:43.013Z,92.01
2019-04-05T01:03:43.012Z,92.53
2019-04-05T01:04:43.065Z,91.60
2019-04-05T01:05:42.980Z,91.14
2019-04-05T01:06:42.997Z,91.08
2019-04-05T01:07:42.958Z,91.24
2019-04-05T01:08:42.945Z,91.35
2019-04-05T01:09:42.937Z,91.18
2019-04-05T01:10:42.924Z,91.35
2019-04-05T01:11:42.948Z,91.86
2019-04-05T01:12:42.902Z,91.60
2019-04-05T01:13:42.907Z,91.91
2019-04-05T01:14:42.879Z,92.32
2019-04-05T01:15:42.871Z,92.38
2019-04-05T01:16:42.907Z,91.76
2019-04-05T01:17:42.848Z,91.55
2019-04-05T01:18:42.895Z,92.28
2019-04-05T01:19:42.826Z,92.32
2019-04-05T01:20:42.815Z,91.91
2019-04-05T01:21:42.827Z,92.49
2019-04-05T01:22:42.804Z,92.49
2019-04-05T01:23:42.785Z,92.80
2019-04-05T01:24:42.774Z,92.38
2019-04-05T01:25:42.764Z,91.86
2019-04-05T01:26:42.783Z,91.97
2019-04-05T01:27:42.735Z,92.69
2019-04-05T01:28:42.727Z,93.10
2019-04-05T01:29:42.715Z,93.93
2019-04-05T01:30:42.707Z,94.04
2019-04-05T01:31:42.715Z,93.56
2019-04-05T01:32:42.709Z,94.14
2019-04-05T01:33:42.699Z,94.08
2019-04-05T01:34:42.661Z,94.70
2019-04-05T01:35:42.650Z,94.70
2019-04-05T01:36:42.659Z,94.70
2019-04-05T01:37:42.632Z,94.60
2019-04-05T01:38:42.620Z,95.12
2019-04-05T01:39:42.607Z,94.81
2019-04-05T01:40:42.596Z,93.77
2019-04-05T01:41:42.621Z,94.08
2019-04-05T01:42:42.578Z,93.77
2019-04-05T01:43:42.596Z,94.08
2019-04-05T01:44:42.556Z,93.25
2019-04-05T01:45:53.104Z,93.35
2019-04-05T01:46:43.556Z,92.63
2019-04-05T01:47:42.525Z,92.63
2019-04-05T01:48:42.507Z,93.66
2019-04-05T01:49:42.508Z,93.87
2019-04-05T01:50:42.519Z,93.77
2019-04-05T01:51:42.496Z,93.46
2019-04-05T01:52:42.465Z,93.77
2019-04-05T01:53:42.454Z,93.25
2019-04-05T01:54:42.446Z,93.87
2019-04-05T01:55:42.455Z,93.15
2019-04-05T01:56:42.459Z,93.77
2019-04-05T01:57:42.414Z,92.94
2019-04-05T01:58:42.397Z,92.32
2019-04-05T01:59:42.387Z,92.32
2019-04-05T02:00:42.378Z,92.43
2019-04-05T02:01:42.368Z,92.32
2019-04-05T02:02:42.376Z,91.80
2019-04-05T02:03:42.353Z,92.01
2019-04-05T02:04:42.338Z,92.28
2019-04-05T02:05:42.325Z,91.80
2019-04-05T02:06:42.323Z,92.28
2019-04-05T02:07:42.329Z,91.86
2019-04-05T02:08:42.290Z,92.59
2019-04-05T02:09:42.294Z,93.00
2019-04-05T02:10:42.265Z,92.94
2019-04-05T02:11:42.258Z,93.66
2019-04-05T02:12:42.267Z,93.15
2019-04-05T02:13:42.232Z,93.15
2019-04-05T02:14:42.224Z,93.04
2019-04-05T02:15:42.209Z,93.04
2019-04-05T02:16:42.201Z,93.35
2019-04-05T02:17:42.205Z,92.63
2019-04-05T02:18:42.176Z,93.04
2019-04-05T02:19:42.172Z,93.87
2019-04-05T02:20:42.180Z,93.46
2019-04-05T02:21:42.143Z,93.66
2019-04-05T02:22:42.531Z,93.46
2019-04-05T02:23:42.127Z,93.77
2019-04-05T02:24:42.117Z,93.87
2019-04-05T02:25:42.103Z,93.46
2019-04-05T02:26:42.088Z,93.77
2019-04-05T02:27:42.077Z,92.94
2019-04-05T02:28:42.089Z,92.43
2019-04-05T02:29:42.068Z,92.43
2019-04-05T02:30:42.055Z,92.43
2019-04-05T02:31:42.039Z,91.91
2019-04-05T02:32:42.022Z,92.01
2019-04-05T02:33:42.032Z,92.43
2019-04-05T02:34:42.009Z,92.01
2019-04-05T02:35:41.990Z,92.63
2019-04-05T02:36:41.982Z,92.63
2019-04-05T02:37:41.991Z,92.74
2019-04-05T02:38:41.958Z,93.04
2019-04-05T02:39:41.951Z,93.04
2019-04-05T02:40:41.947Z,92.32
2019-04-05T02:41:41.925Z,92.63
2019-04-05T02:42:41.913Z,92.32
2019-04-05T02:43:41.923Z,92.01
2019-04-05T02:44:41.894Z,92.53
2019-04-05T02:45:41.878Z,92.32
2019-04-05T02:46:41.868Z,91.91
2019-04-05T02:47:41.874Z,92.11
2019-04-05T02:48:41.849Z,92.43
2019-04-05T02:49:41.844Z,92.22
2019-04-05T02:50:41.828Z,92.11
2019-04-05T02:51:41.812Z,92.01
2019-04-05T02:52:41.824Z,91.80
2019-04-05T02:53:41.793Z,92.01
2019-04-05T02:54:41.782Z,92.32
2019-04-05T02:55:41.773Z,91.91
2019-04-05T02:56:41.761Z,92.69
2019-04-05T02:57:41.783Z,93.15
2019-04-05T02:58:41.733Z,92.94
2019-04-05T02:59:41.733Z,92.49
2019-04-05T03:00:41.716Z,92.43
2019-04-05T03:01:41.710Z,92.43
2019-04-05T03:02:41.713Z,92.63
2019-04-05T03:03:41.846Z,93.56
2019-04-05T03:04:41.687Z,93.25
2019-04-05T03:05:41.664Z,93.77
2019-04-05T03:06:41.653Z,92.94
2019-04-05T03:07:41.666Z,92.63
2019-04-05T03:08:41.627Z,93.35
2019-04-05T03:09:41.623Z,93.04
2019-04-05T03:10:41.613Z,92.74
2019-04-05T03:11:41.602Z,92.53
2019-04-05T03:12:41.616Z,92.32
2019-04-05T03:13:41.575Z,92.11
2019-04-05T03:14:41.563Z,92.74
2019-04-05T03:15:41.553Z,93.04
2019-04-05T03:16:42.165Z,93.15
2019-04-05T03:17:41.557Z,93.66
2019-04-05T03:18:41.522Z,93.56
2019-04-05T03:19:41.505Z,93.25
2019-04-05T03:20:41.501Z,93.35
2019-04-05T03:21:41.507Z,93.04
2019-04-05T03:22:41.500Z,93.15
2019-04-05T03:23:41.463Z,93.77
2019-04-05T03:24:41.455Z,92.94
2019-04-05T03:25:41.439Z,93.15
2019-04-05T03:26:41.443Z,93.98
2019-04-05T03:27:41.441Z,94.18
2019-04-05T03:28:41.463Z,94.18
2019-04-05T03:29:41.410Z,94.29
2019-04-05T03:30:41.399Z,94.49
2019-04-05T03:31:41.385Z,94.08
2019-04-05T03:32:41.386Z,93.66
2019-04-05T03:33:41.357Z,93.15
2019-04-05T03:34:41.359Z,93.35
2019-04-05T03:35:41.337Z,93.66
2019-04-05T03:36:41.318Z,94.08
2019-04-05T03:37:41.318Z,93.98
2019-04-05T03:38:41.319Z,94.18
2019-04-05T03:39:41.294Z,93.46
2019-04-05T03:40:41.277Z,94.08
2019-04-05T03:41:41.265Z,93.25
2019-04-05T03:42:41.263Z,93.66
2019-04-05T03:43:41.269Z,94.18
2019-04-05T03:44:41.233Z,94.08
2019-04-05T03:45:41.257Z,94.08
2019-04-05T03:46:55.510Z,93.56
2019-04-05T03:47:42.240Z,93.35
2019-04-05T03:48:41.208Z,93.77
2019-04-05T03:49:41.179Z,93.87
2019-04-05T03:50:44.842Z,93.25
2019-04-05T03:51:41.177Z,93.66
2019-04-05T03:52:41.145Z,92.63
2019-04-05T03:53:41.161Z,92.63
2019-04-05T03:54:41.122Z,92.63
2019-04-05T03:55:41.113Z,92.74
2019-04-05T03:56:41.109Z,92.43
2019-04-05T03:57:41.090Z,92.22
2019-04-05T03:58:41.084Z,92.53
2019-04-05T03:59:41.091Z,92.43
2019-04-05T04:00:41.062Z,91.91
2019-04-05T04:01:41.054Z,92.01
2019-04-05T04:02:41.035Z,92.11
2019-04-05T04:03:41.030Z,92.22
2019-04-05T04:04:41.031Z,92.01
2019-04-05T04:05:41.007Z,91.80
2019-04-05T04:06:40.992Z,92.01
2019-04-05T04:07:40.987Z,92.22
2019-04-05T04:08:40.978Z,92.11
2019-04-05T04:09:40.980Z,92.53
2019-04-05T04:10:40.956Z,92.43
2019-04-05T04:11:40.945Z,92.11
2019-04-05T04:12:40.943Z,91.60
2019-04-05T04:13:40.927Z,91.80
2019-04-05T04:14:40.931Z,92.01
2019-04-05T04:15:40.918Z,93.04
2019-04-05T04:16:40.883Z,93.46
2019-04-05T04:17:40.876Z,93.87
2019-04-05T04:18:40.860Z,93.98
2019-04-05T04:19:40.849Z,93.46
2019-04-05T04:20:40.857Z,93.66
2019-04-05T04:21:40.842Z,93.77
2019-04-05T04:22:40.847Z,93.25
2019-04-05T04:23:40.805Z,93.35
2019-04-05T04:24:40.798Z,93.35
2019-04-05T04:25:40.802Z,93.50
2019-04-05T04:26:40.776Z,93.56
2019-04-05T04:27:40.765Z,93.77
2019-04-05T04:28:40.749Z,93.15
2019-04-05T04:29:40.758Z,93.04
2019-04-05T04:30:40.755Z,93.35
2019-04-05T04:31:40.720Z,92.94
2019-04-05T04:32:40.715Z,93.04
2019-04-05T04:33:40.707Z,92.84
2019-04-05T04:34:40.692Z,92.43
2019-04-05T04:35:40.707Z,92.32
2019-04-05T04:36:40.672Z,92.43
2019-04-05T04:37:40.652Z,92.43
2019-04-05T04:38:40.660Z,92.01
2019-04-05T04:39:40.631Z,91.91
2019-04-05T04:40:40.659Z,92.43
2019-04-05T04:41:40.606Z,92.01
2019-04-05T04:42:40.599Z,92.22
2019-04-05T04:43:40.587Z,93.04
2019-04-05T04:44:40.573Z,93.77
2019-04-05T04:45:40.581Z,93.91
2019-04-05T04:46:40.556Z,94.18
2019-04-05T04:47:40.544Z,94.08
2019-04-05T04:48:40.530Z,94.29
2019-04-05T04:49:40.523Z,94.12
2019-04-05T04:50:40.541Z,94.12
2019-04-05T04:51:40.497Z,93.60
2019-04-05T04:52:40.484Z,93.71
2019-04-05T04:53:40.476Z,93.40
2019-04-05T04:54:40.463Z,93.40
2019-04-05T04:55:40.471Z,93.40
2019-04-05T04:56:40.474Z,94.12
2019-04-05T04:57:40.431Z,94.43
2019-04-05T04:58:40.421Z,94.85
2019-04-05T04:59:40.407Z,94.64
2019-04-05T05:00:40.424Z,94.74
2019-04-05T05:01:40.392Z,95.16
2019-04-05T05:02:40.376Z,94.33
2019-04-05T05:03:40.553Z,94.02
2019-04-05T05:04:40.355Z,94.23
2019-04-05T05:05:40.373Z,93.81
2019-04-05T05:06:40.334Z,94.02
2019-04-05T05:07:40.322Z,94.12
2019-04-05T05:08:40.319Z,93.29
2019-04-05T05:09:40.305Z,93.50
2019-04-05T05:10:40.288Z,93.08
2019-04-05T05:11:40.294Z,92.57
2019-04-05T05:12:40.273Z,92.16
2019-04-05T05:13:40.255Z,92.68
2019-04-05T05:14:40.253Z,93.40
2019-04-05T05:15:40.236Z,94.08
2019-04-05T05:16:40.242Z,93.40
2019-04-05T05:17:40.220Z,93.60
2019-04-05T05:18:40.202Z,93.91
2019-04-05T05:19:40.191Z,93.91
2019-04-05T05:20:42.658Z,93.81
2019-04-05T05:21:40.222Z,93.81
2019-04-05T05:22:40.230Z,93.50
2019-04-05T05:23:40.170Z,94.23
2019-04-05T05:24:40.142Z,94.12
2019-04-05T05:25:40.128Z,94.23
2019-04-05T05:26:40.148Z,94.02
2019-04-05T05:27:40.133Z,94.12
2019-04-05T05:28:40.101Z,93.56
2019-04-05T05:29:40.113Z,93.60
2019-04-05T05:30:40.080Z,93.66
2019-04-05T05:31:40.102Z,93.40
2019-04-05T05:32:40.073Z,93.35
2019-04-05T05:33:40.039Z,94.02
2019-04-05T05:34:40.034Z,94.18
2019-04-05T05:35:40.060Z,93.50
2019-04-05T05:36:40.040Z,93.91
2019-04-05T05:37:40.003Z,94.02
2019-04-05T05:38:40.001Z,94.18
2019-04-05T05:39:39.983Z,93.66
2019-04-05T05:40:39.966Z,94.02
2019-04-05T05:41:39.957Z,94.08
2019-04-05T05:42:39.963Z,93.25
2019-04-05T05:43:39.935Z,94.02
2019-04-05T05:44:39.930Z,94.12
2019-04-05T05:45:39.962Z,94.08
2019-04-05T05:46:39.918Z,93.29
2019-04-05T05:47:50.981Z,93.25
2019-04-05T05:48:40.880Z,93.46
2019-04-05T05:49:39.879Z,93.04
2019-04-05T05:50:39.866Z,93.66
2019-04-05T05:51:39.847Z,93.04
2019-04-05T05:52:39.855Z,93.25
2019-04-05T05:53:39.826Z,93.35
2019-04-05T05:54:39.813Z,93.98
2019-04-05T05:55:39.800Z,93.25
2019-04-05T05:56:39.802Z,93.15
2019-04-05T05:57:40.559Z,93.46
2019-04-05T05:58:39.773Z,93.77
2019-04-05T05:59:39.757Z,93.98
2019-04-05T06:00:39.788Z,93.25
2019-04-05T06:01:39.790Z,93.66
2019-04-05T06:02:39.745Z,92.94
2019-04-05T06:03:39.712Z,92.94
2019-04-05T06:04:39.714Z,92.74
2019-04-05T06:05:39.735Z,92.32
2019-04-05T06:06:39.683Z,92.32
2019-04-05T06:07:39.718Z,92.32
2019-04-05T06:08:39.672Z,93.25
2019-04-05T06:09:39.652Z,94.60
2019-04-05T06:10:39.638Z,95.32
2019-04-05T06:11:39.627Z,95.43
2019-04-05T06:12:39.621Z,95.43
2019-04-05T06:13:39.647Z,94.35
2019-04-05T06:14:39.595Z,94.70
2019-04-05T06:15:39.584Z,94.39
2019-04-05T06:16:46.189Z,94.60
2019-04-05T06:17:40.567Z,94.39
2019-04-05T06:18:39.583Z,94.08
2019-04-05T06:19:39.547Z,94.04
2019-04-05T06:20:39.535Z,94.04
2019-04-05T06:21:39.519Z,93.83
2019-04-05T06:22:39.512Z,93.52
2019-04-05T06:23:39.535Z,93.73
2019-04-05T06:24:39.493Z,93.83
2019-04-05T06:25:39.478Z,93.52
2019-04-05T06:26:39.465Z,93.83
2019-04-05T06:27:39.460Z,93.21
2019-04-05T06:28:39.579Z,93.73
2019-04-05T06:29:39.432Z,93.52
2019-04-05T06:30:39.423Z,94.56
2019-04-05T06:31:39.413Z,95.39
2019-04-05T06:32:39.403Z,95.90
2019-04-05T06:33:39.415Z,95.39
2019-04-05T06:34:39.374Z,95.80
2019-04-05T06:35:39.371Z,95.80
2019-04-05T06:36:39.354Z,95.90
2019-04-05T06:37:39.341Z,96.21
2019-04-05T06:38:39.362Z,96.42
2019-04-05T06:39:39.323Z,96.52
2019-04-05T06:40:40.940Z,96.94
2019-04-05T06:41:39.314Z,96.62
2019-04-05T06:42:39.291Z,96.11
2019-04-05T06:43:39.353Z,96.11
2019-04-05T06:44:39.280Z,95.90
2019-04-05T06:45:39.255Z,96.42
2019-04-05T06:46:39.243Z,96.01
2019-04-05T06:47:39.241Z,95.70
2019-04-05T06:48:39.221Z,95.59
2019-04-05T06:49:39.227Z,95.70
2019-04-05T06:50:39.202Z,95.65
2019-04-05T06:51:39.188Z,96.31
2019-04-05T06:52:39.182Z,96.83
2019-04-05T06:53:39.166Z,97.31
2019-04-05T06:54:39.173Z,97.20
2019-04-05T06:55:39.146Z,97.20
2019-04-05T06:56:39.134Z,97.20
2019-04-05T06:57:39.225Z,97.41
2019-04-05T06:58:39.111Z,97.41
2019-04-05T06:59:39.119Z,97.67
2019-04-05T07:00:39.088Z,97.78
2019-04-05T07:01:39.103Z,97.67
2019-04-05T07:02:39.066Z,97.36
2019-04-05T07:03:39.056Z,96.75
2019-04-05T07:04:39.076Z,97.16
2019-04-05T07:05:39.033Z,97.47
2019-04-05T07:06:39.022Z,97.06
2019-04-05T07:07:39.018Z,97.36
2019-04-05T07:08:39.008Z,96.95
2019-04-05T07:09:39.014Z,97.22
2019-04-05T07:10:38.981Z,96.44
2019-04-05T07:11:38.966Z,96.29
2019-04-05T07:12:38.957Z,96.54
2019-04-05T07:13:38.952Z,95.98
2019-04-05T07:14:38.935Z,95.87
2019-04-05T07:15:38.943Z,96.08
2019-04-05T07:16:38.913Z,95.98
2019-04-05T07:17:38.903Z,95.56
2019-04-05T07:18:38.907Z,95.46
2019-04-05T07:19:38.880Z,95.36
2019-04-05T07:20:38.888Z,95.25
2019-04-05T07:21:38.861Z,95.04
2019-04-05T07:22:39.546Z,95.15
2019-04-05T07:23:38.841Z,95.00
2019-04-05T07:24:38.823Z,94.79
2019-04-05T07:25:38.837Z,95.00
2019-04-05T07:26:38.807Z,95.00
2019-04-05T07:27:38.791Z,95.10
2019-04-05T07:28:38.781Z,95.42
2019-04-05T07:29:38.771Z,93.97
2019-04-05T07:30:38.777Z,93.76
2019-04-05T07:31:38.754Z,93.24
2019-04-05T07:32:38.736Z,91.80
2019-04-05T07:33:38.726Z,91.80
2019-04-05T07:34:38.714Z,92.11
2019-04-05T07:35:38.726Z,90.77
2019-04-05T07:36:38.690Z,92.11
2019-04-05T07:37:38.684Z,91.59
2019-04-05T07:38:38.673Z,91.90
2019-04-05T07:39:38.663Z,91.34
2019-04-05T07:40:38.669Z,91.38
2019-04-05T07:41:38.637Z,91.49
2019-04-05T07:42:38.627Z,92.00
2019-04-05T07:43:38.615Z,92.17
2019-04-05T07:44:38.605Z,92.17
2019-04-05T07:45:38.594Z,92.99
2019-04-05T07:46:38.605Z,92.27
2019-04-05T07:47:38.570Z,92.38
2019-04-05T07:48:44.666Z,93.10
2019-04-05T07:49:39.549Z,93.51
2019-04-05T07:50:38.558Z,93.93
2019-04-05T07:51:38.545Z,93.78
2019-04-05T07:52:38.519Z,93.88
2019-04-05T07:53:38.504Z,93.37
2019-04-05T07:54:38.502Z,92.95
2019-04-05T07:55:38.481Z,92.85
2019-04-05T07:56:38.552Z,92.02
2019-04-05T07:57:38.460Z,92.13
2019-04-05T07:58:38.458Z,92.02
2019-04-05T07:59:38.437Z,92.33
2019-04-05T08:00:38.428Z,91.92
2019-04-05T08:01:38.436Z,91.46
2019-04-05T08:02:38.408Z,91.92
2019-04-05T08:03:38.400Z,91.67
2019-04-05T08:04:38.388Z,90.78
2019-04-05T08:05:38.375Z,90.22
2019-04-05T08:06:38.381Z,91.05
2019-04-05T08:07:38.356Z,90.74
2019-04-05T08:08:38.340Z,90.74
2019-04-05T08:09:38.332Z,89.19
2019-04-05T08:10:38.327Z,88.37
2019-04-05T08:11:38.328Z,89.29
2019-04-05T08:12:38.299Z,89.87
2019-04-05T08:13:38.285Z,89.15
2019-04-05T08:14:38.310Z,88.02
2019-04-05T08:15:38.266Z,87.60
2019-04-05T08:16:38.271Z,89.15
2019-04-05T08:17:38.242Z,89.77
2019-04-05T08:18:38.231Z,89.77
2019-04-05T08:19:38.229Z,87.71
2019-04-05T08:20:38.213Z,84.99
2019-04-05T08:21:38.218Z,82.45
2019-04-05T08:22:38.189Z,83.95
2019-04-05T08:23:38.189Z,87.05
2019-04-05T08:24:38.173Z,88.04
2019-04-05T08:25:40.979Z,87.63
2019-04-05T08:26:38.166Z,85.15
2019-04-05T08:27:38.149Z,81.85
2019-04-05T08:28:38.127Z,85.67
2019-04-05T08:29:38.120Z,85.77
2019-04-05T08:30:38.103Z,83.77
2019-04-05T08:31:38.111Z,80.16
2019-04-05T08:32:38.125Z,84.70
2019-04-05T08:33:38.072Z,85.31
2019-04-05T08:34:38.061Z,86.87
2019-04-05T08:35:38.048Z,83.56
2019-04-05T08:36:38.063Z,80.47
2019-04-05T08:37:38.035Z,84.29
2019-04-05T08:38:39.772Z,84.14
2019-04-05T08:39:38.008Z,82.40
2019-04-05T08:40:37.993Z,81.63
2019-04-05T08:41:38.004Z,78.79
2019-04-05T08:42:37.976Z,82.05
2019-04-05T08:43:37.959Z,80.51
2019-04-05T08:44:37.949Z,83.49
2019-04-05T08:45:37.937Z,84.48
2019-04-05T08:46:37.934Z,84.79
2019-04-05T08:47:37.935Z,83.25
2019-04-05T08:48:37.905Z,83.92
2019-04-05T08:49:37.892Z,81.87
2019-04-05T08:50:37.885Z,81.35
2019-04-05T08:51:37.876Z,82.69
2019-04-05T08:52:37.887Z,82.69
2019-04-05T08:53:37.850Z,82.79
2019-04-05T08:54:37.864Z,79.81
2019-04-05T08:55:37.829Z,80.12
2019-04-05T08:56:37.827Z,78.92
2019-04-05T08:57:37.829Z,80.43
2019-04-05T08:58:37.797Z,79.40
2019-04-05T08:59:37.790Z,79.40
2019-04-05T09:00:37.775Z,81.46
2019-04-05T09:01:37.767Z,81.97
2019-04-05T09:02:37.791Z,83.11
2019-04-05T09:03:37.743Z,80.53
2019-04-05T09:04:37.733Z,80.33
2019-04-05T09:05:37.739Z,80.94
2019-04-05T09:06:37.711Z,80.53
2019-04-05T09:07:37.724Z,81.05
2019-04-05T09:08:37.689Z,81.15
2019-04-05T09:09:37.678Z,81.05
2019-04-05T09:10:37.674Z,80.63
2019-04-05T09:11:37.657Z,78.89
2019-04-05T09:12:37.647Z,79.71
2019-04-05T09:13:37.658Z,79.81
2019-04-05T09:14:37.628Z,80.70
2019-04-05T09:15:37.623Z,81.32
2019-04-05T09:16:37.604Z,80.53
2019-04-05T09:17:37.687Z,81.32
2019-04-05T09:18:37.600Z,82.14
2019-04-05T09:19:37.584Z,81.42
2019-04-05T09:20:37.572Z,80.49
2019-04-05T09:21:40.411Z,80.80
2019-04-05T09:22:37.566Z,81.42
2019-04-05T09:23:37.530Z,80.80
2019-04-05T09:24:37.517Z,81.11
2019-04-05T09:25:37.515Z,78.85
2019-04-05T09:26:37.498Z,81.01
2019-04-05T09:27:37.510Z,81.01
2019-04-05T09:28:37.477Z,81.62
2019-04-05T09:29:37.465Z,81.42
2019-04-05T09:30:37.454Z,81.59
2019-04-05T09:31:37.442Z,80.91
2019-04-05T09:32:37.450Z,80.25
2019-04-05T09:33:37.426Z,81.62
2019-04-05T09:34:37.413Z,81.07
2019-04-05T09:35:37.400Z,80.97
2019-04-05T09:36:37.390Z,80.25
2019-04-05T09:37:37.408Z,80.15
2019-04-05T09:38:37.383Z,81.59
2019-04-05T09:39:37.365Z,80.87
2019-04-05T09:40:37.351Z,77.37
2019-04-05T09:41:37.336Z,80.83
2019-04-05T09:42:37.428Z,80.93
2019-04-05T09:43:37.317Z,81.14
2019-04-05T09:44:37.313Z,81.34
2019-04-05T09:45:37.293Z,80.32
2019-04-05T09:46:46.905Z,79.91
2019-04-05T09:47:38.291Z,78.36
2019-04-05T09:48:37.267Z,79.91
2019-04-05T09:49:37.413Z,80.73
2019-04-05T09:50:37.239Z,80.52
2019-04-05T09:51:37.233Z,79.91
2019-04-05T09:52:44.790Z,79.91
2019-04-05T09:53:37.220Z,80.42
2019-04-05T09:54:37.196Z,79.29
2019-04-05T09:55:37.187Z,79.49
2019-04-05T09:56:37.175Z,80.83
2019-04-05T09:57:37.164Z,80.52
2019-04-05T09:58:37.175Z,80.63
2019-04-05T09:59:37.147Z,80.52
2019-04-05T10:00:37.132Z,81.04
2019-04-05T10:01:37.122Z,80.63
2019-04-05T10:02:37.115Z,80.63
2019-04-05T10:03:37.120Z,81.20
2019-04-05T10:04:37.094Z,79.97
2019-04-05T10:05:37.092Z,79.36
2019-04-05T10:06:37.073Z,81.92
2019-04-05T10:07:44.122Z,81.92
2019-04-05T10:08:38.066Z,79.73
2019-04-05T10:09:37.043Z,81.37
2019-04-05T10:10:37.031Z,81.78
2019-04-05T10:11:37.028Z,80.76
2019-04-05T10:12:37.016Z,78.50
2019-04-05T10:13:37.019Z,78.87
2019-04-05T10:14:36.982Z,77.95
2019-04-05T10:15:36.975Z,78.25
2019-04-05T10:16:36.967Z,77.95
2019-04-05T10:17:36.965Z,75.90
2019-04-05T10:18:36.956Z,79.08
2019-04-05T10:19:48.969Z,78.05
2019-04-05T10:20:39.067Z,78.87
2019-04-05T10:21:36.912Z,79.59
2019-04-05T10:22:36.902Z,79.18
2019-04-05T10:23:36.898Z,78.87
2019-04-05T10:24:36.901Z,78.67
2019-04-05T10:25:36.885Z,77.95
2019-04-05T10:26:36.881Z,77.44
2019-04-05T10:27:36.854Z,75.90
2019-04-05T10:28:36.877Z,76.65
2019-04-05T10:29:36.872Z,77.06
2019-04-05T10:30:36.817Z,76.62
2019-04-05T10:31:36.806Z,76.75
2019-04-05T10:32:36.820Z,76.55
2019-04-05T10:33:36.798Z,77.06
2019-04-05T10:34:36.794Z,76.86
2019-04-05T10:35:36.764Z,77.37
2019-04-05T10:36:36.756Z,78.70
2019-04-05T10:37:36.747Z,78.70
2019-04-05T10:38:36.730Z,76.96
2019-04-05T10:39:36.735Z,79.22
2019-04-05T10:40:36.714Z,77.17
2019-04-05T10:41:36.708Z,76.10
2019-04-05T10:42:36.689Z,75.28
2019-04-05T10:43:36.678Z,76.00
2019-04-05T10:44:36.687Z,79.38
2019-04-05T10:45:36.655Z,75.59
2019-04-05T10:46:36.647Z,77.09
2019-04-05T10:47:36.635Z,75.66
2019-04-05T10:48:36.631Z,73.91
2019-04-05T10:49:36.630Z,75.24
2019-04-05T10:50:36.605Z,75.04
2019-04-05T10:51:36.593Z,75.24
2019-04-05T10:52:36.579Z,75.15
2019-04-05T10:53:36.574Z,74.94
2019-04-05T10:54:36.585Z,75.04
2019-04-05T10:55:36.551Z,75.73
2019-04-05T10:56:36.538Z,74.19
2019-04-05T10:57:36.526Z,75.01
2019-04-05T10:58:36.519Z,74.19
2019-04-05T10:59:38.481Z,74.90
2019-04-05T11:00:36.495Z,74.08
2019-04-05T11:01:36.485Z,74.36
2019-04-05T11:02:36.474Z,73.33
2019-04-05T11:03:36.470Z,75.69
2019-04-05T11:04:36.449Z,74.66
2019-04-05T11:05:36.458Z,72.52
2019-04-05T11:06:36.429Z,73.64
2019-04-05T11:07:36.428Z,73.33
2019-04-05T11:08:36.431Z,73.13
2019-04-05T11:09:36.397Z,71.80
2019-04-05T11:10:36.419Z,72.41
2019-04-05T11:11:36.376Z,72.00
2019-04-05T11:12:36.468Z,72.31
2019-04-05T11:13:36.355Z,73.16
2019-04-05T11:14:36.348Z,74.97
2019-04-05T11:15:36.353Z,73.85
2019-04-05T11:16:36.322Z,74.97
2019-04-05T11:17:36.309Z,74.73
2019-04-05T11:18:36.303Z,73.20
2019-04-05T11:19:36.483Z,72.48
2019-04-05T11:20:36.304Z,72.58
2019-04-05T11:21:36.279Z,72.17
2019-04-05T11:22:36.266Z,72.89
2019-04-05T11:23:36.252Z,74.69
2019-04-05T11:24:36.236Z,73.06
2019-04-05T11:25:36.255Z,72.24
2019-04-05T11:26:36.215Z,72.86
2019-04-05T11:27:36.208Z,72.96
2019-04-05T11:28:36.194Z,74.08
2019-04-05T11:29:36.201Z,73.98
2019-04-05T11:30:36.188Z,71.94
2019-04-05T11:31:36.166Z,73.47
2019-04-05T11:32:36.155Z,70.03
2019-04-05T11:33:36.154Z,71.73
2019-04-05T11:34:36.137Z,72.07
2019-04-05T11:35:36.145Z,72.34
2019-04-05T11:36:36.107Z,72.04
2019-04-05T11:37:36.097Z,72.17
2019-04-05T11:38:36.083Z,73.47
2019-04-05T11:39:36.074Z,72.86
2019-04-05T11:40:36.074Z,72.04
2019-04-05T11:41:36.076Z,72.04
2019-04-05T11:42:36.053Z,75.10
2019-04-05T11:43:36.043Z,74.49
2019-04-05T11:44:36.020Z,69.68
2019-04-05T11:45:36.009Z,70.50
2019-04-05T11:46:36.044Z,71.22
2019-04-05T11:47:35.985Z,72.96
2019-04-05T11:48:35.979Z,73.27
2019-04-05T11:49:35.968Z,74.97
2019-04-05T11:50:35.965Z,72.31
2019-04-05T11:51:35.965Z,72.04
2019-04-05T11:52:35.930Z,70.81
2019-04-05T11:53:35.931Z,71.12
2019-04-05T11:54:35.918Z,69.48
2019-04-05T11:55:35.903Z,71.12
2019-04-05T11:56:35.940Z,72.45
2019-04-05T11:57:35.888Z,73.47
2019-04-05T11:58:35.870Z,71.19
2019-04-05T11:59:35.865Z,71.94
2019-04-05T12:00:35.847Z,74.76
2019-04-05T12:01:35.836Z,70.67
2019-04-05T12:02:35.848Z,70.71
2019-04-05T12:03:35.818Z,71.01
2019-04-05T12:04:35.803Z,70.61
2019-04-05T12:05:35.796Z,72.24
2019-04-05T12:06:35.794Z,71.62
2019-04-05T12:07:35.818Z,70.81
2019-04-05T12:08:35.788Z,70.71
2019-04-05T12:09:35.754Z,71.22
2019-04-05T12:10:35.736Z,72.75
2019-04-05T12:11:35.740Z,71.01
2019-04-05T12:12:35.738Z,72.14
2019-04-05T12:13:35.707Z,72.14
2019-04-05T12:14:36.637Z,72.55
2019-04-05T12:15:36.431Z,73.03
2019-04-05T12:16:36.210Z,69.79
2019-04-05T12:17:35.832Z,71.42
2019-04-05T12:18:35.655Z,70.20
2019-04-05T12:19:38.002Z,71.22
2019-04-05T12:20:47.855Z,72.55
2019-04-05T12:21:36.645Z,72.96
2019-04-05T12:22:35.652Z,71.32
2019-04-05T12:23:35.612Z,71.94
2019-04-05T12:24:35.588Z,72.86
2019-04-05T12:25:35.581Z,72.14
2019-04-05T12:26:35.563Z,70.61
2019-04-05T12:27:35.569Z,68.25
2019-04-05T12:28:35.567Z,70.29
2019-04-05T12:29:35.619Z,71.42
2019-04-05T12:30:35.566Z,70.71
2019-04-05T12:31:35.518Z,72.04
2019-04-05T12:32:41.029Z,71.01
2019-04-05T12:33:36.504Z,71.86
2019-04-05T12:34:35.490Z,71.12
2019-04-05T12:35:37.563Z,70.43
2019-04-05T12:36:35.456Z,71.22
2019-04-05T12:37:35.445Z,72.34
2019-04-05T12:38:35.451Z,72.45
2019-04-05T12:39:37.157Z,71.62
2019-04-05T12:40:35.419Z,72.96
2019-04-05T12:41:35.400Z,73.81
2019-04-05T12:42:35.396Z,73.88
2019-04-05T12:43:35.443Z,72.89
2019-04-05T12:44:35.367Z,71.83
2019-04-05T12:45:35.356Z,70.09
2019-04-05T12:46:35.348Z,70.64
2019-04-05T12:47:35.363Z,69.92
2019-04-05T12:48:35.452Z,70.74
2019-04-05T12:49:35.319Z,72.07
2019-04-05T12:50:35.311Z,73.20
2019-04-05T12:51:35.295Z,73.10
2019-04-05T12:52:35.286Z,73.91